Time;durP1;ratioP1;P1;durP2;ratioP2;P2;SDS_P1;SDS_P2;PMS_P1;PMS_P2;Temp;Humidity;BMP_temperature;BMP_pressure;BME280_temperature;BME280_humidity;BME280_pressure;Samples;Min_cycle;Max_cycle;Signal;HPM_P1;HPM_P2
2022/09/09 00:02:21;;;;;;;1.40;1.23;;;;;;;18.03;65.31;99144.47;5012531;28;20548;-73
2022/09/09 00:05:16;;;;;;;1.90;1.50;;;;;;;18.06;65.26;99141.50;5011554;28;20202;-74
2022/09/09 00:07:48;;;;;;;1.40;1.30;;;;;;;18.11;64.80;99149.00;4993163;28;20630;-73
2022/09/09 00:10:17;;;;;;;2.10;1.87;;;;;;;18.13;64.81;99147.88;5014079;28;20313;-73
2022/09/09 00:13:05;;;;;;;3.00;1.70;;;;;;;18.09;65.44;99141.22;5013065;28;20493;-73
2022/09/09 00:15:40;;;;;;;1.63;1.40;;;;;;;18.00;65.58;99149.28;5011482;28;20734;-74
2022/09/09 00:18:29;;;;;;;2.33;1.43;;;;;;;17.89;65.66;99151.22;5012886;28;20472;-73
2022/09/09 00:20:58;;;;;;;2.43;1.90;;;;;;;17.81;65.98;99153.81;5012704;28;20468;-74
2022/09/09 00:23:28;;;;;;;2.23;1.40;;;;;;;17.75;66.06;99148.25;5016184;28;20489;-72
2022/09/09 00:26:02;;;;;;;3.93;1.57;;;;;;;17.68;66.18;99154.16;5011538;28;20468;-71
2022/09/09 00:28:32;;;;;;;2.22;1.50;;;;;;;17.65;66.08;99154.47;5012674;28;20463;-71
2022/09/09 00:31:22;;;;;;;3.70;1.40;;;;;;;17.67;66.00;99163.13;5015568;28;20689;-72
2022/09/09 00:33:49;;;;;;;4.73;1.63;;;;;;;17.72;65.80;99170.66;5017507;28;20467;-72
2022/09/09 00:36:21;;;;;;;1.80;1.50;;;;;;;17.76;65.84;99164.03;5012740;28;20829;-72
2022/09/09 00:38:51;;;;;;;3.23;1.60;;;;;;;17.80;65.57;99162.78;5030405;28;20464;-72
2022/09/09 00:41:41;;;;;;;2.90;1.50;;;;;;;17.85;65.79;99163.16;5018331;28;21037;-72
2022/09/09 00:44:25;;;;;;;4.30;1.57;;;;;;;17.85;65.65;99164.97;5016662;28;20508;-72
2022/09/09 00:47:00;;;;;;;2.00;1.53;;;;;;;17.83;65.71;99166.94;5018432;28;20549;-72
2022/09/09 00:50:03;;;;;;;2.70;1.47;;;;;;;17.82;65.47;99174.09;5018252;28;20570;-72
2022/09/09 00:52:28;;;;;;;2.53;1.87;;;;;;;17.83;65.69;99166.94;5018941;28;20447;-72
2022/09/09 00:55:16;;;;;;;1.60;1.17;;;;;;;17.83;65.63;99167.78;5019931;28;20468;-73
2022/09/09 00:57:41;;;;;;;1.97;1.53;;;;;;;17.82;65.83;99176.75;5018381;28;20209;-72
2022/09/09 01:00:26;;;;;;;3.37;1.50;;;;;;;17.81;65.96;99175.06;5015113;28;20481;-72
2022/09/09 01:03:04;;;;;;;2.50;1.40;;;;;;;17.81;66.00;99171.56;5019170;28;20202;-71
2022/09/09 01:05:32;;;;;;;1.30;1.20;;;;;;;17.78;65.83;99164.72;5016357;28;20464;-72
2022/09/09 01:08:02;;;;;;;3.40;2.13;;;;;;;17.79;65.82;99161.09;5019032;28;20473;-72
2022/09/09 01:10:55;;;;;;;4.10;1.63;;;;;;;17.84;65.37;99164.13;5013740;28;20515;-72
2022/09/09 01:13:34;;;;;;;2.97;1.20;;;;;;;17.89;65.31;99155.69;5017529;28;20993;-72
2022/09/09 01:16:11;;;;;;;1.77;1.40;;;;;;;17.94;64.65;99155.22;5033074;28;20475;-73
2022/09/09 01:18:43;;;;;;;3.73;1.73;;;;;;;17.98;64.39;99160.06;5016785;28;20466;-73
2022/09/09 01:21:42;;;;;;;2.83;1.40;;;;;;;18.05;63.89;99168.25;5027736;23;20701;-77
2022/09/09 01:24:27;;;;;;;2.20;1.33;;;;;;;18.08;63.58;99165.28;4994810;28;20484;-77
2022/09/09 01:27:15;;;;;;;3.60;1.20;;;;;;;18.10;63.24;99163.31;4998245;28;20467;-78
2022/09/09 01:29:41;;;;;;;5.83;1.47;;;;;;;18.12;62.82;99161.34;4632492;28;10000091;-78
2022/09/09 01:32:37;;;;;;;1.90;1.57;;;;;;;18.15;62.73;99171.66;4957507;28;20299;-78
2022/09/09 01:35:04;;;;;;;2.53;1.40;;;;;;;18.14;62.51;99173.44;4956880;28;20542;-78
2022/09/09 01:37:29;;;;;;;1.60;1.20;;;;;;;18.14;62.59;99175.28;4957910;28;20211;-78
2022/09/09 01:39:55;;;;;;;6.73;2.00;;;;;;;18.14;62.58;99177.94;4975278;28;20512;-78
2022/09/09 01:42:20;;;;;;;5.10;1.50;;;;;;;18.12;62.57;99175.47;4959609;28;20224;-77
2022/09/09 01:44:46;;;;;;;3.20;1.30;;;;;;;18.13;62.17;99168.31;4958604;28;20702;-78
2022/09/09 01:47:12;;;;;;;4.90;1.43;;;;;;;18.14;62.43;99172.63;4954766;28;20202;-78
2022/09/09 01:50:02;;;;;;;1.97;1.40;;;;;;;18.18;62.21;99173.16;4973403;28;20314;-78
2022/09/09 01:52:31;;;;;;;7.13;1.50;;;;;;;18.21;62.19;99173.66;4972891;28;20554;-78
2022/09/09 01:54:56;;;;;;;2.67;1.40;;;;;;;18.26;61.89;99174.03;4968018;28;21008;-78
2022/09/09 01:57:30;;;;;;;5.10;1.63;;;;;;;18.28;62.02;99166.75;4972939;28;20733;-78
2022/09/09 02:00:10;;;;;;;3.03;1.80;;;;;;;18.30;61.75;99172.72;4957290;28;20484;-78
2022/09/09 02:03:05;;;;;;;1.77;1.40;;;;;;;18.32;61.86;99167.25;4955335;28;20504;-77
2022/09/09 02:05:41;;;;;;;2.70;1.80;;;;;;;18.32;61.60;99168.09;4970216;28;20537;-78
2022/09/09 02:08:48;;;;;;;5.27;1.87;;;;;;;18.32;61.46;99173.41;4957070;28;20459;-78
2022/09/09 02:11:21;;;;;;;3.63;1.50;;;;;;;18.32;61.47;99162.75;4926491;28;20784;-78
2022/09/09 02:14:21;;;;;;;2.67;2.47;;;;;;;18.32;61.51;99167.25;4951814;28;20453;-78
2022/09/09 02:16:54;;;;;;;1.60;1.30;;;;;;;18.28;61.95;99163.22;4953149;28;20537;-78
2022/09/09 02:19:32;;;;;;;6.10;1.47;;;;;;;18.25;61.98;99161.72;4952675;28;21052;-78
2022/09/09 02:22:20;;;;;;;2.07;1.63;;;;;;;18.22;62.13;99167.34;4991315;28;20482;-78
2022/09/09 02:24:50;;;;;;;3.20;1.30;;;;;;;18.22;61.96;99170.00;4975273;28;20450;-78
2022/09/09 02:27:22;;;;;;;3.43;1.57;;;;;;;18.25;62.23;99171.53;4990448;28;21094;-79
2022/09/09 02:29:50;;;;;;;3.03;1.30;;;;;;;18.24;62.25;99160.06;4995801;28;20950;-79
2022/09/09 02:32:22;;;;;;;3.10;1.83;;;;;;;18.23;62.50;99157.56;4980227;28;20512;-79
2022/09/09 02:35:15;;;;;;;2.93;1.40;;;;;;;18.20;62.77;99165.84;4991896;28;20456;-78
2022/09/09 02:37:47;;;;;;;1.63;1.20;;;;;;;18.20;62.77;99169.34;4980952;28;20962;-78
2022/09/09 02:40:17;;;;;;;4.00;1.70;;;;;;;18.19;62.86;99169.50;4978767;28;20551;-77
2022/09/09 02:42:50;;;;;;;2.30;1.87;;;;;;;18.16;62.87;99167.16;4995519;28;20882;-77
2022/09/09 02:45:22;;;;;;;4.67;1.70;;;;;;;18.13;63.28;99173.63;4975529;28;20457;-78
2022/09/09 02:48:07;;;;;;;3.63;1.80;;;;;;;18.11;63.26;99165.78;4990366;28;21190;-77
2022/09/09 02:50:42;;;;;;;1.60;1.50;;;;;;;18.08;63.58;99168.75;4978456;28;20835;-77
2022/09/09 02:53:17;;;;;;;3.57;1.63;;;;;;;18.06;63.84;99173.41;4990951;28;20461;-77
2022/09/09 02:55:50;;;;;;;4.10;1.40;;;;;;;18.00;63.98;99163.41;4978920;28;20456;-77
2022/09/09 02:58:19;;;;;;;2.17;1.60;;;;;;;17.92;64.62;99169.50;4990205;28;20481;-78
2022/09/09 03:00:53;;;;;;;3.00;1.90;;;;;;;17.85;64.97;99168.47;4985183;28;20979;-77
2022/09/09 03:03:21;;;;;;;2.07;1.50;;;;;;;17.81;65.16;99166.25;4977146;28;20516;-78
2022/09/09 03:05:48;;;;;;;1.90;1.40;;;;;;;17.79;65.40;99168.22;4990130;28;20479;-77
2022/09/09 03:08:14;;;;;;;3.13;1.50;;;;;;;17.76;65.28;99172.00;4971655;28;20469;-77
2022/09/09 03:10:40;;;;;;;4.30;1.43;;;;;;;17.77;65.68;99163.06;4990881;28;20254;-78
2022/09/09 03:13:06;;;;;;;3.63;1.87;;;;;;;17.71;65.75;99171.63;4974516;28;20450;-78
2022/09/09 03:15:35;;;;;;;2.80;1.60;;;;;;;17.67;66.03;99173.75;4990977;28;20196;-77
2022/09/09 03:18:02;;;;;;;2.50;1.43;;;;;;;17.67;65.96;99167.63;4970969;28;21604;-77
2022/09/09 03:20:29;;;;;;;2.17;1.90;;;;;;;17.66;66.18;99171.25;4990603;28;20503;-77
2022/09/09 03:22:57;;;;;;;5.47;1.50;;;;;;;17.67;66.07;99171.09;4991249;28;20480;-77
2022/09/09 03:25:23;;;;;;;1.83;1.43;;;;;;;17.67;66.21;99167.63;4973131;28;20458;-78
2022/09/09 03:27:54;;;;;;;1.77;1.40;;;;;;;17.68;66.25;99166.63;4974834;28;20933;-77
2022/09/09 03:30:20;;;;;;;4.15;2.53;;;;;;;17.70;66.38;99165.47;4987605;28;20495;-77
2022/09/09 03:32:47;;;;;;;1.40;1.30;;;;;;;17.75;66.15;99165.03;4975694;28;20201;-77
2022/09/09 03:35:14;;;;;;;1.47;1.37;;;;;;;17.80;66.20;99164.59;4968928;28;20194;-77
2022/09/09 03:37:39;;;;;;;1.42;1.33;;;;;;;17.85;66.14;99157.84;4989390;28;20456;-78
2022/09/09 03:40:06;;;;;;;7.20;1.87;;;;;;;17.89;66.20;99150.38;4987745;28;20226;-77
2022/09/09 03:42:31;;;;;;;2.60;1.40;;;;;;;17.92;66.03;99152.72;4989468;28;20297;-77
2022/09/09 03:44:59;;;;;;;2.60;1.67;;;;;;;17.92;66.07;99142.09;4975607;28;21218;-78
2022/09/09 03:47:25;;;;;;;3.93;1.50;;;;;;;17.89;66.29;99145.88;4972793;28;20572;-78
2022/09/09 03:49:55;;;;;;;4.13;1.40;;;;;;;17.87;66.23;99147.88;4973650;28;20536;-77
2022/09/09 03:52:24;;;;;;;2.57;1.70;;;;;;;17.85;66.64;99147.22;4974827;28;20545;-78
2022/09/09 03:54:51;;;;;;;3.13;1.50;;;;;;;17.84;66.54;99150.84;4969577;28;20576;-77
2022/09/09 03:57:17;;;;;;;3.00;2.20;;;;;;;17.83;66.48;99158.97;4985443;28;20455;-77
2022/09/09 03:59:43;;;;;;;1.80;1.50;;;;;;;17.77;66.62;99163.06;4973838;28;20996;-77
2022/09/09 04:02:09;;;;;;;2.30;1.80;;;;;;;17.72;66.86;99160.03;4976536;28;20198;-78
2022/09/09 04:04:34;;;;;;;5.60;2.50;;;;;;;17.72;67.58;99152.06;4989923;28;20518;-78
2022/09/09 04:07:00;;;;;;;2.63;2.37;;;;;;;17.68;67.71;99154.16;4979274;28;20203;-78
2022/09/09 04:09:26;;;;;;;1.60;1.40;;;;;;;17.65;67.49;99153.66;4976323;28;20668;-77
2022/09/09 04:11:52;;;;;;;3.00;2.03;;;;;;;17.61;67.70;99157.63;4992721;28;20264;-77
2022/09/09 04:14:18;;;;;;;2.80;1.30;;;;;;;17.58;67.44;99147.28;4990639;28;20218;-78
2022/09/09 04:16:44;;;;;;;2.50;1.90;;;;;;;17.55;67.39;99147.59;4990791;28;20458;-77
2022/09/09 04:19:13;;;;;;;6.90;2.80;;;;;;;17.51;67.42;99152.38;4992801;28;20448;-78
2022/09/09 04:21:41;;;;;;;4.90;2.73;;;;;;;17.49;67.30;99154.34;4979570;28;20475;-78
2022/09/09 04:24:08;;;;;;;2.97;2.20;;;;;;;17.49;67.26;99146.38;4980723;28;20935;-78
2022/09/09 04:26:34;;;;;;;3.90;2.43;;;;;;;17.51;67.09;99152.38;4981653;28;20452;-78
2022/09/09 04:28:59;;;;;;;3.10;2.10;;;;;;;17.53;66.82;99152.25;4977380;28;20631;-78
2022/09/09 04:31:25;;;;;;;3.77;1.67;;;;;;;17.52;66.64;99146.06;4980215;28;21101;-78
2022/09/09 04:33:55;;;;;;;3.07;1.60;;;;;;;17.53;66.57;99149.59;4992026;28;20199;-79
2022/09/09 04:36:21;;;;;;;2.27;1.67;;;;;;;17.55;66.53;99161.72;4978501;28;20461;-79
2022/09/09 04:38:49;;;;;;;1.90;1.67;;;;;;;17.57;66.39;99142.97;4996723;28;20453;-79
2022/09/09 04:41:16;;;;;;;2.03;1.47;;;;;;;17.60;66.35;99140.81;4980042;28;20810;-79
2022/09/09 04:43:43;;;;;;;2.43;1.63;;;;;;;17.65;66.19;99146.50;4998955;28;20480;-79
2022/09/09 04:46:10;;;;;;;1.60;1.20;;;;;;;17.71;65.91;99147.72;4981756;28;20445;-80
2022/09/09 04:48:35;;;;;;;3.47;2.20;;;;;;;17.74;65.93;99152.75;4981434;28;20561;-79
2022/09/09 04:51:09;;;;;;;2.33;1.50;;;;;;;17.79;65.73;99153.13;4980748;28;20512;-79
2022/09/09 04:53:35;;;;;;;2.40;1.10;;;;;;;17.85;65.77;99155.19;4981079;28;20475;-80
2022/09/09 04:56:06;;;;;;;4.83;1.77;;;;;;;17.91;65.55;99159.03;4980204;28;20914;-80
2022/09/09 04:58:36;;;;;;;2.80;1.30;;;;;;;17.96;65.38;99161.19;4999724;28;21491;-79
2022/09/09 05:01:12;;;;;;;1.73;1.43;;;;;;;18.00;65.44;99157.25;4978014;28;20457;-80
2022/09/09 05:03:39;;;;;;;2.27;1.20;;;;;;;18.04;65.24;99161.28;4980058;28;20549;-79
2022/09/09 05:06:10;;;;;;;1.70;1.00;;;;;;;18.05;65.13;99165.59;4980741;28;20466;-80
2022/09/09 05:08:40;;;;;;;2.70;1.33;;;;;;;18.04;65.28;99175.41;4995504;28;20460;-79
2022/09/09 05:11:36;;;;;;;1.60;1.40;;;;;;;18.05;65.66;99165.59;4978545;28;20513;-79
2022/09/09 05:14:11;;;;;;;1.40;1.17;;;;;;;18.05;65.54;99170.91;4996253;28;20461;-80
2022/09/09 05:16:37;;;;;;;2.13;0.90;;;;;;;18.05;65.50;99168.25;4995589;28;20450;-79
2022/09/09 05:19:03;;;;;;;7.23;1.33;;;;;;;18.06;65.22;99168.09;4996302;28;20539;-79
2022/09/09 05:21:38;;;;;;;2.17;1.37;;;;;;;18.11;65.17;99167.63;4991781;28;20239;-79
2022/09/09 05:24:03;;;;;;;1.80;1.10;;;;;;;18.12;65.33;99164.00;4978896;28;20563;-79
2022/09/09 05:26:29;;;;;;;2.90;1.33;;;;;;;18.13;65.17;99158.50;4993914;28;20207;-79
2022/09/09 05:28:56;;;;;;;3.17;1.30;;;;;;;18.17;65.42;99166.16;4975041;28;20465;-79
2022/09/09 05:31:22;;;;;;;3.40;1.60;;;;;;;18.16;65.13;99172.47;4977774;28;20479;-79
2022/09/09 05:33:50;;;;;;;1.70;1.40;;;;;;;18.18;65.13;99178.47;4995501;28;20897;-79
2022/09/09 05:36:18;;;;;;;4.67;1.33;;;;;;;18.19;65.25;99173.00;4993658;28;20458;-80
2022/09/09 05:38:46;;;;;;;2.23;1.40;;;;;;;18.22;65.14;99172.66;4977162;28;20218;-79
2022/09/09 05:41:17;;;;;;;1.90;1.53;;;;;;;18.25;65.16;99179.50;4984288;28;21322;-79
2022/09/09 05:43:44;;;;;;;3.93;2.07;;;;;;;18.28;64.76;99166.75;4991130;28;20482;-79
2022/09/09 05:46:13;;;;;;;3.27;2.00;;;;;;;18.33;64.50;99168.91;4986984;28;20462;-79
2022/09/09 05:48:46;;;;;;;5.43;1.93;;;;;;;18.38;64.46;99169.28;4973615;28;20557;-79
2022/09/09 05:51:17;;;;;;;3.47;1.50;;;;;;;18.42;64.43;99167.97;4972995;28;20478;-79
2022/09/09 05:53:44;;;;;;;3.40;1.60;;;;;;;18.48;64.60;99169.16;4974222;28;20451;-79
2022/09/09 05:56:17;;;;;;;1.80;1.40;;;;;;;18.53;64.28;99174.84;4989129;28;20453;-79
2022/09/09 05:58:53;;;;;;;2.90;1.20;;;;;;;18.56;64.06;99178.00;4990312;28;20722;-79
2022/09/09 06:01:26;;;;;;;1.73;1.50;;;;;;;18.64;64.08;99179.88;4972220;28;20501;-80
2022/09/09 06:03:53;;;;;;;3.70;1.60;;;;;;;18.71;63.99;99188.91;4974175;28;20476;-78
2022/09/09 06:06:22;;;;;;;2.30;1.43;;;;;;;18.77;63.89;99182.97;4971798;28;20711;-78
2022/09/09 06:08:50;;;;;;;2.50;1.33;;;;;;;18.80;63.71;99181.81;4970922;28;20963;-79
2022/09/09 06:11:19;;;;;;;3.07;1.20;;;;;;;18.86;63.37;99188.31;4982864;28;20466;-79
2022/09/09 06:13:45;;;;;;;4.43;1.33;;;;;;;18.91;63.19;99178.03;4983153;28;20461;-79
2022/09/09 06:16:13;;;;;;;2.30;1.43;;;;;;;18.98;63.01;99176.34;4965297;28;21162;-79
2022/09/09 06:18:40;;;;;;;5.77;1.40;;;;;;;19.04;62.74;99183.72;4982375;28;20482;-79
2022/09/09 06:21:09;;;;;;;4.03;1.10;;;;;;;19.09;63.00;99180.53;4983290;28;20489;-79
2022/09/09 06:23:35;;;;;;;4.67;1.20;;;;;;;19.17;62.75;99189.41;4968253;28;20493;-80
2022/09/09 06:26:06;;;;;;;3.03;1.57;;;;;;;19.24;62.33;99184.25;4965952;28;20582;-79
2022/09/09 06:28:34;;;;;;;1.67;1.17;;;;;;;19.31;62.25;99176.41;4987539;28;21065;-79
2022/09/09 06:31:00;;;;;;;1.53;0.93;;;;;;;19.39;61.88;99176.47;4991365;28;20467;-78
2022/09/09 06:33:30;;;;;;;2.00;1.20;;;;;;;19.52;61.62;99182.09;4976198;28;20468;-79
2022/09/09 06:35:56;;;;;;;2.90;1.90;;;;;;;19.62;61.51;99176.63;4975449;28;20209;-79
2022/09/09 06:38:23;;;;;;;3.60;1.60;;;;;;;19.74;61.19;99174.50;4976589;28;20989;-79
2022/09/09 06:40:54;;;;;;;1.77;1.30;;;;;;;19.87;60.63;99182.81;4975026;28;20824;-79
2022/09/09 06:43:21;;;;;;;1.90;1.20;;;;;;;19.95;60.25;99176.66;4990429;28;20494;-79
2022/09/09 06:45:55;;;;;;;1.47;1.13;;;;;;;20.01;59.92;99187.47;4992395;28;20462;-79
2022/09/09 06:48:21;;;;;;;3.10;1.10;;;;;;;20.00;59.76;99185.81;4975223;28;20478;-79
2022/09/09 06:50:47;;;;;;;2.33;1.00;;;;;;;19.97;59.77;99187.97;4975125;28;20518;-79
2022/09/09 06:53:16;;;;;;;1.67;1.20;;;;;;;19.99;59.97;99188.66;4972866;28;20488;-79
2022/09/09 06:55:44;;;;;;;1.73;1.27;;;;;;;20.02;59.87;99186.47;4991956;28;20548;-79
2022/09/09 06:58:10;;;;;;;4.03;1.03;;;;;;;20.10;59.73;99186.47;4990207;28;20463;-80
2022/09/09 07:00:37;;;;;;;4.57;1.73;;;;;;;20.21;59.64;99187.13;4989527;28;20455;-80
2022/09/09 07:03:03;;;;;;;1.40;1.30;;;;;;;20.30;59.45;99197.56;4988642;28;20855;-79
2022/09/09 07:05:29;;;;;;;5.43;1.20;;;;;;;20.38;59.10;99198.56;4988502;28;21007;-79
2022/09/09 07:07:54;;;;;;;3.07;1.10;;;;;;;20.44;59.21;99192.53;4987468;28;20318;-79
2022/09/09 07:10:20;;;;;;;1.67;1.33;;;;;;;20.49;58.78;99196.34;4985946;28;20250;-79
2022/09/09 07:12:51;;;;;;;3.93;1.20;;;;;;;20.54;58.50;99187.88;4986899;28;21033;-80
2022/09/09 07:15:18;;;;;;;2.73;1.30;;;;;;;20.62;58.12;99206.53;4973352;28;20833;-83
2022/09/09 07:17:44;;;;;;;3.57;1.50;;;;;;;20.70;57.64;99203.84;4995059;28;20481;-81
2022/09/09 07:22:45;;;;;;;2.40;1.27;;;;;;;20.88;57.09;99203.59;4977721;28;20311;-73
2022/09/09 07:25:11;;;;;;;3.30;1.30;;;;;;;20.91;56.37;99215.78;4982243;28;20873;-72
2022/09/09 07:27:37;;;;;;;4.67;1.30;;;;;;;20.91;56.38;99205.91;4988460;28;20261;-73
2022/09/09 07:30:04;;;;;;;0.90;0.80;;;;;;;20.95;56.57;99207.25;4988253;28;20200;-73
2022/09/09 07:32:31;;;;;;;1.83;1.03;;;;;;;21.15;56.18;99207.63;4977949;28;20787;-72
2022/09/09 07:34:58;;;;;;;1.60;1.00;;;;;;;21.58;54.92;99208.06;4988335;28;20826;-73
2022/09/09 07:37:24;;;;;;;1.53;1.20;;;;;;;21.87;54.04;99207.34;4988831;28;20217;-73
2022/09/09 07:39:51;;;;;;;2.00;1.20;;;;;;;21.88;53.74;99200.97;4989202;28;21056;-74
2022/09/09 07:42:17;;;;;;;1.27;1.00;;;;;;;21.88;53.37;99214.34;4990025;28;20894;-73
2022/09/09 07:44:42;;;;;;;2.20;1.20;;;;;;;21.84;53.28;99206.84;4980921;28;20466;-73
2022/09/09 07:47:11;;;;;;;3.53;1.00;;;;;;;21.69;53.44;99214.84;4990014;28;20234;-73
2022/09/09 07:49:49;;;;;;;1.80;1.10;;;;;;;21.91;52.78;99217.69;4990932;28;21217;-73
2022/09/09 07:52:19;;;;;;;5.10;1.97;;;;;;;22.20;51.87;99223.13;4988347;28;20471;-73
2022/09/09 07:54:45;;;;;;;5.03;1.63;;;;;;;22.07;52.10;99212.19;4991334;28;20449;-73
2022/09/09 07:57:12;;;;;;;2.20;0.90;;;;;;;21.94;52.33;99211.97;4974265;28;20485;-73
2022/09/09 07:59:38;;;;;;;1.90;1.20;;;;;;;21.85;52.74;99224.56;4980843;28;20525;-74
2022/09/09 08:02:04;;;;;;;6.40;1.40;;;;;;;21.75;53.00;99219.47;4987252;28;20529;-72
2022/09/09 08:04:33;;;;;;;2.70;1.30;;;;;;;21.71;53.35;99222.66;4987017;28;20275;-74
2022/09/09 08:07:03;;;;;;;2.60;1.40;;;;;;;21.59;53.54;99228.44;4988909;28;20627;-73
2022/09/09 08:09:33;;;;;;;2.13;1.50;;;;;;;21.60;53.64;99218.56;4987291;28;20229;-73
2022/09/09 08:12:24;;;;;;;2.00;1.20;;;;;;;21.96;52.79;99221.47;4986965;28;20973;-73
2022/09/09 08:14:51;;;;;;;3.07;1.10;;;;;;;22.82;50.69;99216.59;4987888;28;20460;-73
2022/09/09 08:17:17;;;;;;;4.57;1.87;;;;;;;23.78;48.11;99216.47;5005451;28;20182;-73
2022/09/09 08:19:44;;;;;;;1.93;1.40;;;;;;;24.60;46.34;99209.66;4985315;28;20411;-73
2022/09/09 08:22:14;;;;;;;2.83;1.10;;;;;;;25.31;44.71;99204.81;4987410;28;20527;-73
2022/09/09 08:24:40;;;;;;;2.40;1.20;;;;;;;25.82;42.91;99201.59;4990312;28;20495;-73
2022/09/09 08:27:07;;;;;;;2.53;1.10;;;;;;;26.20;42.20;99203.69;4990671;28;20416;-74
2022/09/09 08:29:32;;;;;;;1.93;1.40;;;;;;;26.59;41.17;99204.66;4991140;28;20434;-73
2022/09/09 08:31:59;;;;;;;2.40;1.17;;;;;;;26.67;41.10;99207.13;4990190;28;20225;-73
2022/09/09 08:34:26;;;;;;;3.33;1.73;;;;;;;26.93;40.41;99206.22;4997419;28;20214;-73
2022/09/09 08:36:53;;;;;;;2.93;1.00;;;;;;;27.23;39.53;99200.31;4992775;28;20478;-73
2022/09/09 08:39:24;;;;;;;4.40;1.20;;;;;;;27.41;39.36;99206.81;4992076;28;20525;-74
2022/09/09 08:42:00;;;;;;;3.87;1.40;;;;;;;27.53;38.74;99207.81;4991542;28;20628;-74
2022/09/09 08:44:52;;;;;;;2.93;1.60;;;;;;;27.50;38.66;99200.97;5009306;28;20432;-74
2022/09/09 08:47:44;;;;;;;2.90;1.30;;;;;;;27.31;38.81;99201.91;4992924;28;20533;-73
2022/09/09 08:50:25;;;;;;;1.97;1.13;;;;;;;27.19;39.09;99199.06;4992169;28;20824;-74
2022/09/09 08:53:21;;;;;;;2.63;1.20;;;;;;;27.02;39.32;99198.72;4991297;28;20528;-74
2022/09/09 08:56:03;;;;;;;3.43;1.87;;;;;;;26.93;39.51;99200.81;4987217;28;20836;-75
2022/09/09 08:58:50;;;;;;;1.50;1.20;;;;;;;26.86;39.63;99220.75;4992623;28;20424;-74
2022/09/09 09:01:35;;;;;;;5.10;2.17;;;;;;;26.56;39.52;99212.34;4981242;28;20459;-73
2022/09/09 09:04:52;;;;;;;1.30;1.00;;;;;;;26.27;39.57;99219.81;4986238;28;20871;-74
2022/09/09 09:07:52;;;;;;;4.40;1.40;;;;;;;25.81;39.98;99213.38;4953840;28;20856;-73
2022/09/09 09:10:30;;;;;;;2.57;1.20;;;;;;;25.68;40.12;99205.31;4955425;28;20885;-74
2022/09/09 09:12:56;;;;;;;5.07;1.20;;;;;;;25.71;40.49;99217.53;4982522;28;20821;-74
2022/09/09 09:15:36;;;;;;;4.47;1.13;;;;;;;25.66;39.95;99215.44;4991101;28;20440;-74
2022/09/09 09:18:04;;;;;;;3.23;1.37;;;;;;;25.35;40.22;99213.31;4992340;28;21010;-74
2022/09/09 09:20:42;;;;;;;1.20;0.90;;;;;;;24.97;41.09;99211.06;4985981;28;20500;-74
2022/09/09 09:23:20;;;;;;;2.73;1.63;;;;;;;24.67;41.91;99213.22;4981356;28;20463;-74
2022/09/09 09:25:46;;;;;;;1.70;1.40;;;;;;;24.47;42.28;99205.88;4989752;28;20434;-75
2022/09/09 09:28:21;;;;;;;2.87;1.10;;;;;;;24.17;42.40;99210.59;4991381;28;20444;-73
2022/09/09 09:31:05;;;;;;;1.77;1.03;;;;;;;23.91;42.92;99216.59;4993155;28;20454;-74
2022/09/09 09:33:40;;;;;;;3.37;1.17;;;;;;;23.83;43.28;99214.03;4991544;28;20405;-74
2022/09/09 09:36:08;;;;;;;1.40;1.30;;;;;;;24.03;43.07;99217.72;4991858;28;20482;-74
2022/09/09 09:38:37;;;;;;;1.70;1.10;;;;;;;24.42;42.03;99208.28;4992403;28;20436;-73
2022/09/09 09:41:03;;;;;;;4.00;1.27;;;;;;;24.73;41.10;99204.34;5006298;28;20462;-74
2022/09/09 09:43:31;;;;;;;3.20;0.90;;;;;;;24.89;40.25;99204.00;4995240;28;20470;-74
2022/09/09 09:46:00;;;;;;;3.40;1.80;;;;;;;24.69;40.18;99195.06;5005861;28;20504;-75
2022/09/09 09:48:27;;;;;;;2.30;1.43;;;;;;;24.55;40.63;99191.47;4991781;28;20462;-75
2022/09/09 09:50:57;;;;;;;3.50;1.00;;;;;;;24.54;40.71;99195.16;4994354;28;20485;-76
2022/09/09 09:53:29;;;;;;;1.10;0.97;;;;;;;24.62;40.29;99188.81;5009313;28;20588;-75
2022/09/09 09:56:16;;;;;;;3.23;0.90;;;;;;;24.74;40.21;99187.22;4989776;28;20448;-74
2022/09/09 09:58:45;;;;;;;4.00;1.50;;;;;;;25.00;40.19;99191.03;4992906;28;20863;-74
2022/09/09 10:01:27;;;;;;;3.30;1.17;;;;;;;25.26;38.96;99185.78;5007267;28;20465;-73
2022/09/09 10:03:57;;;;;;;4.85;1.90;;;;;;;25.42;38.46;99187.28;4991175;28;20434;-74
2022/09/09 10:06:34;;;;;;;6.30;1.70;;;;;;;25.63;38.46;99183.59;4997214;28;20194;-75
2022/09/09 10:09:04;;;;;;;1.83;1.43;;;;;;;25.79;37.92;99191.25;4989667;28;22439;-75
2022/09/09 10:12:07;;;;;;;3.83;1.10;;;;;;;25.88;37.13;99177.63;4993927;28;20458;-75
2022/09/09 10:15:02;;;;;;;4.70;1.60;;;;;;;25.82;36.22;99174.69;4992321;28;20441;-76
2022/09/09 10:17:35;;;;;;;2.40;0.90;;;;;;;25.94;35.83;99168.72;4991967;28;20459;-74
2022/09/09 10:20:09;;;;;;;4.33;2.70;;;;;;;25.98;35.41;99173.47;4994691;28;20449;-76
2022/09/09 10:22:35;;;;;;;6.33;1.33;;;;;;;25.76;34.86;99183.59;4993449;28;20464;-75
2022/09/09 10:25:28;;;;;;;4.87;1.37;;;;;;;25.33;35.50;99191.16;4992853;28;20555;-74
2022/09/09 10:28:41;;;;;;;3.00;1.20;;;;;;;24.87;36.73;99189.97;4991206;28;20193;-75
2022/09/09 10:31:31;;;;;;;3.20;0.90;;;;;;;24.78;37.24;99188.47;4952343;28;20445;-75
2022/09/09 10:34:08;;;;;;;3.03;1.53;;;;;;;24.80;37.63;99183.75;4951648;28;20430;-74
2022/09/09 10:36:38;;;;;;;1.87;0.90;;;;;;;24.73;37.81;99182.88;4981682;28;20805;-75
2022/09/09 10:39:18;;;;;;;1.37;1.10;;;;;;;24.57;38.13;99185.88;4993044;28;20439;-75
2022/09/09 10:41:59;;;;;;;1.80;1.10;;;;;;;24.41;38.18;99201.28;4995085;28;20466;-75
2022/09/09 10:44:34;;;;;;;2.20;1.27;;;;;;;24.28;37.88;99201.19;4994110;28;20469;-74
2022/09/09 10:47:21;;;;;;;2.27;2.07;;;;;;;24.32;37.78;99189.03;4994563;28;20961;-75
2022/09/09 10:49:58;;;;;;;1.60;0.80;;;;;;;24.50;37.52;99192.06;4994863;28;20435;-75
2022/09/09 10:52:50;;;;;;;2.30;1.00;;;;;;;24.84;37.28;99193.03;4993644;28;20460;-75
2022/09/09 10:55:37;;;;;;;4.10;1.57;;;;;;;24.98;36.73;99190.41;4979644;28;21011;-75
2022/09/09 10:58:04;;;;;;;3.13;1.20;;;;;;;24.88;36.57;99201.53;4994012;28;20536;-75
2022/09/09 11:00:42;;;;;;;4.53;1.10;;;;;;;24.68;37.15;99209.50;4991471;28;21479;-75
2022/09/09 11:03:19;;;;;;;3.50;1.40;;;;;;;24.42;37.82;99208.28;4990080;28;20816;-74
2022/09/09 11:05:57;;;;;;;3.60;1.03;;;;;;;24.20;38.84;99210.22;4994464;28;20546;-75
2022/09/09 11:08:25;;;;;;;2.63;1.27;;;;;;;24.08;39.21;99217.94;4990078;28;21018;-75
2022/09/09 11:11:04;;;;;;;2.40;1.00;;;;;;;24.07;38.86;99215.47;4980028;28;20461;-75
2022/09/09 11:13:39;;;;;;;2.20;1.00;;;;;;;24.04;38.72;99219.38;4992309;28;20550;-74
2022/09/09 11:16:10;;;;;;;3.00;1.00;;;;;;;24.00;38.81;99230.69;4991227;28;20728;-75
2022/09/09 11:18:41;;;;;;;1.20;0.80;;;;;;;23.96;39.49;99226.75;4987839;28;20451;-75
2022/09/09 11:21:17;;;;;;;3.10;0.80;;;;;;;23.85;39.44;99220.03;4988871;28;20528;-75
2022/09/09 11:23:49;;;;;;;2.50;1.00;;;;;;;23.73;39.81;99226.94;4988243;28;20516;-75
2022/09/09 11:26:25;;;;;;;2.80;1.00;;;;;;;23.64;39.85;99231.56;4991462;28;20440;-74
2022/09/09 11:29:06;;;;;;;2.03;0.90;;;;;;;23.50;39.93;99227.09;4990861;28;20547;-75
2022/09/09 11:31:50;;;;;;;1.90;1.00;;;;;;;23.40;40.22;99214.81;4987670;28;20453;-75
2022/09/09 11:34:30;;;;;;;5.40;1.20;;;;;;;23.46;40.60;99223.94;4992736;28;21323;-74
2022/09/09 11:37:06;;;;;;;1.00;0.80;;;;;;;23.59;40.81;99218.72;4990838;28;20543;-75
2022/09/09 11:39:39;;;;;;;2.57;1.33;;;;;;;23.84;40.64;99219.22;4989289;28;21032;-75
2022/09/09 11:42:13;;;;;;;4.60;1.10;;;;;;;24.07;40.61;99218.97;4991390;28;20574;-75
2022/09/09 11:44:39;;;;;;;6.20;1.40;;;;;;;24.17;40.62;99204.38;4988953;28;20417;-74
2022/09/09 11:47:29;;;;;;;2.83;1.50;;;;;;;24.16;40.89;99216.97;4990110;28;20433;-75
2022/09/09 11:49:55;;;;;;;2.53;0.87;;;;;;;24.19;40.85;99207.72;4988421;28;20422;-75
2022/09/09 11:52:48;;;;;;;1.87;0.90;;;;;;;24.25;39.66;99215.00;4990570;28;20437;-75
2022/09/09 11:55:34;;;;;;;2.60;1.13;;;;;;;24.38;39.72;99206.19;4991056;28;20409;-75
2022/09/09 11:58:05;;;;;;;3.33;1.10;;;;;;;24.41;39.72;99217.38;4992773;28;20469;-75
2022/09/09 12:00:37;;;;;;;1.60;0.90;;;;;;;24.43;39.35;99206.44;4991805;28;20686;-75
2022/09/09 12:03:04;;;;;;;1.90;0.90;;;;;;;24.38;38.63;99212.38;4989815;28;21228;-75
2022/09/09 12:05:45;;;;;;;1.20;0.73;;;;;;;24.41;38.18;99212.00;4944112;28;20740;-75